Barmouth, United Kingdom
Current Conditions -  °F | °C
As of 10:50 AM on Friday 28 Nov 2014 (Local Time) from EGOV Reporting Station
Clear Clear  
Wind Chill: 12°   Ceiling: Unl
Heat Index: 12°   Visibility: 6mi
Dew Point:   Wind: 15mph
Humidity: 72%   Direction: 60°ENE
Pressure: 29.59"   Gusts: NA
Location:  52.72°N, 4.06°W
Report Text: EGOV 281050Z 06013KT CAVOK 12/07 Q1002 BLU NOSIG
Loading
Personal Weather Stations






























Interactive Weather Map New forecast layout! Learn more

10-Day Weather Forecast

Advertisements
Track Severe Weather on mobile